sensor_id;sensor_type;location;lat;lon;timestamp;P1;durP1;ratioP1;P2;durP2;ratioP2
15151;SDS011;7676;50.900;6.234;2023-09-19T00:11:57;5.33;;;1.40;;
15151;SDS011;7676;50.900;6.234;2023-09-19T00:26:59;4.60;;;1.67;;
15151;SDS011;7676;50.900;6.234;2023-09-19T00:42:02;4.50;;;1.80;;
15151;SDS011;7676;50.900;6.234;2023-09-19T00:57:07;3.80;;;1.60;;
15151;SDS011;7676;50.900;6.234;2023-09-19T01:12:11;4.20;;;1.67;;
15151;SDS011;7676;50.900;6.234;2023-09-19T01:43:20;5.33;;;1.83;;
15151;SDS011;7676;50.900;6.234;2023-09-19T01:58:32;6.13;;;1.87;;
15151;SDS011;7676;50.900;6.234;2023-09-19T02:13:45;6.67;;;2.00;;
15151;SDS011;7676;50.900;6.234;2023-09-19T02:28:47;7.13;;;1.90;;
15151;SDS011;7676;50.900;6.234;2023-09-19T02:43:50;5.00;;;1.70;;
15151;SDS011;7676;50.900;6.234;2023-09-19T03:15:59;4.73;;;1.70;;
15151;SDS011;7676;50.900;6.234;2023-09-19T03:31:04;6.73;;;1.80;;
15151;SDS011;7676;50.900;6.234;2023-09-19T03:46:10;8.10;;;2.43;;
15151;SDS011;7676;50.900;6.234;2023-09-19T04:01:16;4.57;;;1.40;;
15151;SDS011;7676;50.900;6.234;2023-09-19T04:16:20;4.83;;;1.80;;
15151;SDS011;7676;50.900;6.234;2023-09-19T04:31:23;6.23;;;2.27;;
15151;SDS011;7676;50.900;6.234;2023-09-19T04:46:26;7.63;;;2.00;;
15151;SDS011;7676;50.900;6.234;2023-09-19T05:01:29;3.27;;;1.70;;
15151;SDS011;7676;50.900;6.234;2023-09-19T05:16:32;6.80;;;1.90;;
15151;SDS011;7676;50.900;6.234;2023-09-19T05:31:35;5.07;;;1.60;;
15151;SDS011;7676;50.900;6.234;2023-09-19T05:46:43;5.73;;;1.70;;
15151;SDS011;7676;50.900;6.234;2023-09-19T06:01:47;6.17;;;1.90;;
15151;SDS011;7676;50.900;6.234;2023-09-19T06:16:50;5.67;;;2.00;;
15151;SDS011;7676;50.900;6.234;2023-09-19T06:31:54;6.17;;;1.80;;
15151;SDS011;7676;50.900;6.234;2023-09-19T06:46:57;6.33;;;2.10;;
15151;SDS011;7676;50.900;6.234;2023-09-19T07:02:01;4.93;;;1.70;;
15151;SDS011;7676;50.900;6.234;2023-09-19T07:17:04;5.50;;;2.10;;
15151;SDS011;7676;50.900;6.234;2023-09-19T07:32:06;6.47;;;1.93;;
15151;SDS011;7676;50.900;6.234;2023-09-19T07:47:10;7.00;;;2.07;;
15151;SDS011;7676;50.900;6.234;2023-09-19T08:02:15;5.37;;;1.60;;
15151;SDS011;7676;50.900;6.234;2023-09-19T08:17:21;6.27;;;2.00;;
15151;SDS011;7676;50.900;6.234;2023-09-19T08:32:28;6.40;;;2.00;;
15151;SDS011;7676;50.900;6.234;2023-09-19T08:47:37;5.40;;;1.70;;
15151;SDS011;7676;50.900;6.234;2023-09-19T09:22:24;3.47;;;1.60;;
15151;SDS011;7676;50.900;6.234;2023-09-19T09:37:28;5.13;;;2.10;;
15151;SDS011;7676;50.900;6.234;2023-09-19T09:52:43;4.80;;;1.73;;
15151;SDS011;7676;50.900;6.234;2023-09-19T10:07:49;4.07;;;1.63;;
15151;SDS011;7676;50.900;6.234;2023-09-19T10:22:55;4.93;;;1.70;;
15151;SDS011;7676;50.900;6.234;2023-09-19T10:38:01;4.90;;;1.73;;
15151;SDS011;7676;50.900;6.234;2023-09-19T10:53:05;3.67;;;1.87;;
15151;SDS011;7676;50.900;6.234;2023-09-19T11:08:11;4.50;;;1.67;;
15151;SDS011;7676;50.900;6.234;2023-09-19T11:53:51;6.90;;;1.80;;
15151;SDS011;7676;50.900;6.234;2023-09-19T12:08:54;6.63;;;1.70;;
15151;SDS011;7676;50.900;6.234;2023-09-19T12:39:08;8.90;;;1.57;;
15151;SDS011;7676;50.900;6.234;2023-09-19T12:54:11;3.70;;;1.33;;
15151;SDS011;7676;50.900;6.234;2023-09-19T13:09:33;4.07;;;1.10;;
15151;SDS011;7676;50.900;6.234;2023-09-19T15:46:00;2.13;;;0.67;;
15151;SDS011;7676;50.900;6.234;2023-09-19T16:01:06;2.30;;;1.00;;
15151;SDS011;7676;50.900;6.234;2023-09-19T16:16:12;4.03;;;1.00;;
15151;SDS011;7676;50.900;6.234;2023-09-19T16:31:18;2.67;;;1.17;;
15151;SDS011;7676;50.900;6.234;2023-09-19T16:46:21;1.60;;;1.00;;
15151;SDS011;7676;50.900;6.234;2023-09-19T17:01:23;2.33;;;0.90;;
15151;SDS011;7676;50.900;6.234;2023-09-19T17:16:27;1.40;;;0.83;;
15151;SDS011;7676;50.900;6.234;2023-09-19T17:31:32;2.37;;;1.20;;
15151;SDS011;7676;50.900;6.234;2023-09-19T17:46:34;2.73;;;1.00;;
15151;SDS011;7676;50.900;6.234;2023-09-19T18:01:40;2.97;;;1.23;;
15151;SDS011;7676;50.900;6.234;2023-09-19T18:16:45;2.93;;;1.27;;
15151;SDS011;7676;50.900;6.234;2023-09-19T18:31:50;3.40;;;1.40;;
15151;SDS011;7676;50.900;6.234;2023-09-19T18:46:54;3.63;;;1.00;;
15151;SDS011;7676;50.900;6.234;2023-09-19T19:01:57;2.53;;;1.10;;
15151;SDS011;7676;50.900;6.234;2023-09-19T19:17:02;2.43;;;1.30;;
15151;SDS011;7676;50.900;6.234;2023-09-19T19:32:05;1.83;;;1.00;;
15151;SDS011;7676;50.900;6.234;2023-09-19T19:47:09;2.90;;;1.20;;
15151;SDS011;7676;50.900;6.234;2023-09-19T20:02:12;2.60;;;1.30;;
15151;SDS011;7676;50.900;6.234;2023-09-19T20:17:16;1.33;;;1.13;;
15151;SDS011;7676;50.900;6.234;2023-09-19T20:32:18;3.13;;;1.27;;
15151;SDS011;7676;50.900;6.234;2023-09-19T20:47:21;3.07;;;1.47;;
15151;SDS011;7676;50.900;6.234;2023-09-19T21:02:24;3.83;;;1.53;;
15151;SDS011;7676;50.900;6.234;2023-09-19T21:17:28;2.73;;;1.50;;
15151;SDS011;7676;50.900;6.234;2023-09-19T21:32:32;3.47;;;1.50;;
15151;SDS011;7676;50.900;6.234;2023-09-19T21:47:38;4.70;;;1.30;;
15151;SDS011;7676;50.900;6.234;2023-09-19T22:02:41;4.00;;;1.50;;
15151;SDS011;7676;50.900;6.234;2023-09-19T22:17:44;4.67;;;1.47;;
15151;SDS011;7676;50.900;6.234;2023-09-19T22:32:47;2.57;;;1.40;;
15151;SDS011;7676;50.900;6.234;2023-09-19T22:47:50;4.00;;;1.30;;
15151;SDS011;7676;50.900;6.234;2023-09-19T23:02:53;3.50;;;1.27;;
15151;SDS011;7676;50.900;6.234;2023-09-19T23:17:56;2.63;;;1.60;;
15151;SDS011;7676;50.900;6.234;2023-09-19T23:33:00;2.93;;;1.37;;
15151;SDS011;7676;50.900;6.234;2023-09-19T23:48:04;3.83;;;1.60;;
